createdAt,value
2022-09-23T00:01:15.199Z,99.90
2022-09-23T00:03:47.089Z,99.90
2022-09-23T00:06:20.105Z,99.90
2022-09-23T00:08:49.588Z,99.90
2022-09-23T00:11:20.505Z,99.90
2022-09-23T00:13:49.970Z,99.90
2022-09-23T00:16:20.917Z,99.90
2022-09-23T00:18:49.994Z,99.90
2022-09-23T00:21:21.258Z,99.90
2022-09-23T00:23:49.460Z,99.90
2022-09-23T00:26:19.298Z,99.90
2022-09-23T00:28:47.610Z,99.90
2022-09-23T00:31:23.510Z,99.90
2022-09-23T00:33:59.342Z,99.90
2022-09-23T00:36:27.690Z,99.90
2022-09-23T00:38:55.733Z,99.90
2022-09-23T00:41:23.563Z,99.90
2022-09-23T00:43:54.268Z,99.90
2022-09-23T00:46:27.683Z,99.90
2022-09-23T00:49:25.053Z,99.90
2022-09-23T00:52:02.136Z,99.90
2022-09-23T00:54:29.837Z,99.90
2022-09-23T00:56:58.937Z,99.90
2022-09-23T00:59:28.901Z,99.90
2022-09-23T01:01:57.673Z,99.90
2022-09-23T01:04:27.332Z,99.90
2022-09-23T01:06:54.716Z,99.90
2022-09-23T01:09:23.136Z,99.90
2022-09-23T01:12:35.678Z,99.90
2022-09-23T01:15:38.998Z,99.90
2022-09-23T01:18:18.627Z,99.90
2022-09-23T01:21:10.209Z,99.90
2022-09-23T01:24:08.410Z,99.90
2022-09-23T01:26:57.672Z,99.90
2022-09-23T01:29:28.077Z,99.90
2022-09-23T01:32:16.516Z,99.90
2022-09-23T01:34:51.690Z,99.90
2022-09-23T01:37:34.382Z,99.90
2022-09-23T01:40:20.241Z,99.90
2022-09-23T01:43:09.399Z,99.90
2022-09-23T01:45:45.937Z,99.90
2022-09-23T01:48:52.548Z,99.90
2022-09-23T01:51:49.408Z,99.90
2022-09-23T01:54:31.601Z,99.90
2022-09-23T01:57:04.480Z,99.90
2022-09-23T01:59:37.507Z,99.90
2022-09-23T02:02:23.848Z,99.90
2022-09-23T02:05:01.857Z,99.90
2022-09-23T02:07:47.051Z,99.90
2022-09-23T02:10:30.538Z,99.90
2022-09-23T02:13:05.471Z,99.90
2022-09-23T02:15:36.833Z,99.90
2022-09-23T02:18:14.423Z,99.90
2022-09-23T02:20:44.341Z,99.90
2022-09-23T02:23:15.203Z,99.90
2022-09-23T02:26:07.734Z,99.90
2022-09-23T02:28:56.423Z,99.90
2022-09-23T02:31:42.482Z,99.90
2022-09-23T02:34:09.781Z,99.90
2022-09-23T02:37:18.986Z,99.90
2022-09-23T02:39:57.897Z,99.90
2022-09-23T02:42:51.469Z,99.90
2022-09-23T02:45:20.237Z,99.90
2022-09-23T02:47:53.313Z,99.90
2022-09-23T02:50:22.315Z,99.90
2022-09-23T02:52:49.798Z,99.90
2022-09-23T02:55:18.667Z,99.90
2022-09-23T02:57:46.990Z,99.90
2022-09-23T03:00:14.951Z,99.90
2022-09-23T03:03:06.334Z,99.90
2022-09-23T03:05:44.765Z,99.90
2022-09-23T03:08:36.771Z,99.90
2022-09-23T03:11:13.043Z,99.90
2022-09-23T03:13:55.239Z,99.90
2022-09-23T03:16:39.641Z,99.90
2022-09-23T03:19:32.963Z,99.90
2022-09-23T03:22:13.077Z,99.90
2022-09-23T03:24:45.106Z,99.90
2022-09-23T03:27:18.778Z,99.90
2022-09-23T03:29:49.801Z,99.90
2022-09-23T03:32:20.529Z,99.90
2022-09-23T03:34:52.500Z,99.90
2022-09-23T03:37:41.494Z,99.90
2022-09-23T03:40:15.053Z,99.90
2022-09-23T03:42:42.646Z,99.90
2022-09-23T03:45:13.390Z,99.90
2022-09-23T03:47:42.359Z,99.90
2022-09-23T03:50:10.197Z,99.90
2022-09-23T03:52:39.782Z,99.90
2022-09-23T03:55:08.130Z,99.90
2022-09-23T03:57:36.395Z,99.90
2022-09-23T04:00:06.736Z,99.90
2022-09-23T04:02:40.135Z,99.90
2022-09-23T04:05:10.162Z,99.90
2022-09-23T04:07:37.531Z,99.90
2022-09-23T04:10:05.891Z,99.90
2022-09-23T04:12:33.304Z,99.90
2022-09-23T04:15:00.822Z,99.90
2022-09-23T04:17:28.121Z,99.90
2022-09-23T04:19:55.455Z,99.90
2022-09-23T04:22:22.779Z,99.90
2022-09-23T04:24:50.173Z,99.90
2022-09-23T04:27:17.517Z,99.90
2022-09-23T04:29:44.868Z,99.90
2022-09-23T04:32:12.308Z,99.90
2022-09-23T04:34:41.141Z,99.90
2022-09-23T04:37:08.496Z,99.90
2022-09-23T04:39:35.872Z,99.90
2022-09-23T04:42:04.302Z,99.90
2022-09-23T04:44:31.723Z,99.90
2022-09-23T04:46:59.062Z,99.90
2022-09-23T04:49:26.532Z,99.90
2022-09-23T04:51:54.297Z,99.90
2022-09-23T04:54:21.697Z,99.90
2022-09-23T04:56:49.009Z,99.90
2022-09-23T04:59:17.338Z,99.90
2022-09-23T05:01:44.775Z,99.90
2022-09-23T05:04:14.111Z,99.90
2022-09-23T05:06:52.254Z,99.90
2022-09-23T05:09:19.640Z,99.90
2022-09-23T05:11:47.362Z,99.90
2022-09-23T05:14:15.204Z,99.90
2022-09-23T05:16:42.717Z,99.90
2022-09-23T05:19:10.111Z,99.90
2022-09-23T05:21:37.840Z,99.90
2022-09-23T05:24:05.571Z,99.90
2022-09-23T05:26:33.151Z,99.90
2022-09-23T05:29:00.783Z,99.90
2022-09-23T05:31:29.914Z,99.90
2022-09-23T05:34:03.875Z,99.90
2022-09-23T05:36:37.916Z,99.90
2022-09-23T05:39:08.025Z,99.90
2022-09-23T05:41:37.088Z,99.90
2022-09-23T05:44:04.862Z,99.90
2022-09-23T05:46:33.152Z,99.90
2022-09-23T05:49:02.984Z,99.90
2022-09-23T05:51:32.504Z,99.90
2022-09-23T05:54:03.223Z,99.90
2022-09-23T05:56:32.392Z,99.90
2022-09-23T05:59:03.529Z,99.90
2022-09-23T06:01:34.199Z,99.90
2022-09-23T06:04:04.055Z,99.90
2022-09-23T06:06:40.437Z,99.90
2022-09-23T06:09:11.403Z,99.90
2022-09-23T06:11:38.966Z,99.90
2022-09-23T06:14:06.423Z,99.90
2022-09-23T06:16:37.672Z,99.90
2022-09-23T06:19:07.129Z,99.90
2022-09-23T06:21:37.482Z,99.90
2022-09-23T06:24:06.418Z,99.90
2022-09-23T06:26:36.124Z,99.90
2022-09-23T06:29:08.641Z,99.90
2022-09-23T06:31:36.059Z,99.90
2022-09-23T06:34:12.010Z,99.90
2022-09-23T06:36:44.984Z,99.90
2022-09-23T06:39:16.648Z,99.90
2022-09-23T06:41:45.246Z,99.90
2022-09-23T06:44:14.458Z,99.90
2022-09-23T06:46:42.102Z,99.90
2022-09-23T06:49:09.603Z,99.90
2022-09-23T06:51:36.970Z,99.90
2022-09-23T06:54:04.792Z,99.90
2022-09-23T06:56:36.380Z,99.90
2022-09-23T06:59:07.672Z,99.90
2022-09-23T07:01:35.109Z,99.90
2022-09-23T07:04:02.962Z,99.90
2022-09-23T07:06:30.308Z,99.90
2022-09-23T07:08:57.708Z,99.90
2022-09-23T07:11:24.989Z,99.90
2022-09-23T07:13:52.433Z,99.90
2022-09-23T07:16:21.189Z,99.90
2022-09-23T07:18:48.626Z,99.90
2022-09-23T07:21:18.455Z,99.90
2022-09-23T07:23:48.005Z,99.90
2022-09-23T07:26:16.968Z,99.90
2022-09-23T07:28:44.514Z,99.90
2022-09-23T07:31:16.559Z,99.90
2022-09-23T07:33:47.329Z,99.90
2022-09-23T07:36:18.244Z,99.90
2022-09-23T07:38:47.404Z,99.90
2022-09-23T07:41:17.789Z,99.90
2022-09-23T07:43:46.092Z,99.90
2022-09-23T07:46:16.859Z,99.90
2022-09-23T07:48:45.823Z,99.90
2022-09-23T07:51:31.890Z,99.90
2022-09-23T07:54:02.204Z,99.90
2022-09-23T07:56:30.568Z,99.90
2022-09-23T07:59:00.967Z,99.90
2022-09-23T08:01:37.228Z,99.90
2022-09-23T08:04:08.358Z,99.90
2022-09-23T08:06:36.883Z,99.90
2022-09-23T08:09:04.311Z,99.90
2022-09-23T08:11:32.881Z,99.90
2022-09-23T08:14:00.252Z,99.90
2022-09-23T08:16:27.703Z,99.90
2022-09-23T08:18:55.191Z,99.90
2022-09-23T08:21:23.164Z,99.90
2022-09-23T08:23:51.071Z,99.90
2022-09-23T08:26:21.991Z,99.90
2022-09-23T08:28:54.692Z,99.90
2022-09-23T08:31:23.039Z,99.90
2022-09-23T08:33:57.658Z,99.90
2022-09-23T08:36:26.129Z,99.90
2022-09-23T08:38:54.379Z,99.90
2022-09-23T08:41:24.448Z,99.90
2022-09-23T08:43:59.498Z,99.90
2022-09-23T08:46:42.304Z,99.90
2022-09-23T08:49:17.188Z,99.90
2022-09-23T08:51:49.322Z,99.90
2022-09-23T08:54:18.297Z,99.90
2022-09-23T08:56:51.337Z,99.90
2022-09-23T08:59:42.782Z,99.90
2022-09-23T09:02:19.527Z,99.90
2022-09-23T09:04:53.575Z,99.90
2022-09-23T09:07:36.795Z,99.90
2022-09-23T09:10:21.397Z,99.90
2022-09-23T09:13:01.659Z,99.90
2022-09-23T09:15:29.285Z,99.90
2022-09-23T09:18:27.054Z,99.90
2022-09-23T09:21:11.412Z,99.90
2022-09-23T09:23:54.000Z,99.90
2022-09-23T09:26:47.400Z,99.90
2022-09-23T09:29:35.886Z,99.90
2022-09-23T09:32:24.637Z,99.90
2022-09-23T09:34:58.399Z,99.90
2022-09-23T09:37:33.674Z,99.90
2022-09-23T09:40:02.042Z,99.90
2022-09-23T09:42:41.253Z,99.90
2022-09-23T09:45:21.149Z,99.90
2022-09-23T09:48:20.870Z,99.90
2022-09-23T09:50:52.071Z,99.90
2022-09-23T09:53:20.222Z,99.90
2022-09-23T09:56:03.743Z,99.90
2022-09-23T09:58:47.797Z,99.90
2022-09-23T10:01:35.614Z,99.90
2022-09-23T10:04:20.561Z,99.90
2022-09-23T10:07:07.566Z,99.90
2022-09-23T10:09:39.390Z,99.90
2022-09-23T10:12:19.998Z,99.90
2022-09-23T10:14:53.241Z,99.90
2022-09-23T10:17:39.592Z,99.90
2022-09-23T10:20:09.828Z,99.90
2022-09-23T10:22:41.938Z,99.90
2022-09-23T10:25:17.157Z,99.90
2022-09-23T10:27:45.565Z,99.90
2022-09-23T10:30:19.087Z,99.90
2022-09-23T10:32:49.122Z,99.90
2022-09-23T10:35:22.657Z,99.90
2022-09-23T10:37:54.337Z,99.90
2022-09-23T10:40:50.398Z,99.90
2022-09-23T10:44:18.118Z,99.90
2022-09-23T10:47:04.571Z,99.90
2022-09-23T10:49:51.896Z,99.90
2022-09-23T10:52:39.093Z,99.90
2022-09-23T10:55:12.506Z,99.90
2022-09-23T10:57:42.842Z,99.90
2022-09-23T11:00:22.626Z,99.90
2022-09-23T11:03:22.207Z,99.90
2022-09-23T11:06:16.948Z,99.90
2022-09-23T11:09:10.532Z,99.90
2022-09-23T11:11:46.056Z,99.90
2022-09-23T11:14:25.055Z,99.90
2022-09-23T11:17:14.973Z,99.90
2022-09-23T11:20:01.210Z,99.40
2022-09-23T11:22:57.576Z,99.70
2022-09-23T11:25:34.078Z,99.40
2022-09-23T11:28:32.830Z,97.80
2022-09-23T11:31:10.197Z,97.20
2022-09-23T11:33:44.691Z,97.70
2022-09-23T11:36:30.385Z,98.40
2022-09-23T11:39:01.584Z,97.20
2022-09-23T11:41:32.895Z,96.80
2022-09-23T11:44:06.919Z,96.50
2022-09-23T11:46:49.508Z,96.70
2022-09-23T11:49:25.920Z,96.30
2022-09-23T11:52:24.733Z,96.00
2022-09-23T11:55:23.050Z,94.20
2022-09-23T11:57:53.160Z,94.50
2022-09-23T12:00:27.437Z,94.90
2022-09-23T12:03:12.053Z,94.20
2022-09-23T12:05:45.523Z,94.80
2022-09-23T12:08:35.486Z,95.20
2022-09-23T12:11:08.687Z,94.80
2022-09-23T12:13:49.934Z,94.80
2022-09-23T12:16:53.855Z,94.60
2022-09-23T12:19:43.032Z,96.10
2022-09-23T12:22:39.191Z,94.70
2022-09-23T12:25:29.924Z,94.50
2022-09-23T12:28:05.882Z,93.80
2022-09-23T12:30:36.065Z,93.30
2022-09-23T12:33:31.185Z,93.90
2022-09-23T12:36:12.246Z,93.00
2022-09-23T12:38:51.394Z,93.40
2022-09-23T12:41:18.688Z,93.50
2022-09-23T12:44:13.927Z,93.20
2022-09-23T12:46:45.832Z,93.30
2022-09-23T12:49:35.768Z,93.20
2022-09-23T12:52:16.763Z,93.60
2022-09-23T12:54:49.465Z,93.60
2022-09-23T12:57:35.226Z,93.70
2022-09-23T13:00:12.821Z,93.50
2022-09-23T13:03:12.135Z,93.10
2022-09-23T13:06:31.722Z,92.80
2022-09-23T13:08:59.937Z,93.80
2022-09-23T13:11:31.776Z,94.10
2022-09-23T13:14:05.214Z,94.10
2022-09-23T13:16:40.815Z,94.70
2022-09-23T13:19:26.205Z,93.80
2022-09-23T13:21:53.587Z,94.00
2022-09-23T13:24:25.033Z,94.40
2022-09-23T13:27:06.586Z,94.40
2022-09-23T13:29:59.420Z,94.60
2022-09-23T13:32:47.675Z,94.70
2022-09-23T13:35:15.728Z,94.50
2022-09-23T13:37:48.418Z,94.60
2022-09-23T13:40:29.096Z,95.30
2022-09-23T13:43:11.835Z,95.10
2022-09-23T13:45:43.533Z,94.20
2022-09-23T13:48:15.245Z,93.90
2022-09-23T13:50:49.068Z,94.60
2022-09-23T13:53:33.253Z,94.70
2022-09-23T13:56:13.544Z,94.90
2022-09-23T13:58:41.826Z,94.00
2022-09-23T14:01:29.177Z,94.10
2022-09-23T14:03:56.569Z,93.80
2022-09-23T14:06:26.860Z,93.60
2022-09-23T14:08:55.223Z,93.80
2022-09-23T14:11:31.764Z,93.80
2022-09-23T14:14:01.309Z,93.70
2022-09-23T14:16:30.090Z,94.50
2022-09-23T14:19:00.963Z,93.40
2022-09-23T14:21:35.437Z,92.80
2022-09-23T14:24:20.174Z,92.10
2022-09-23T14:26:53.793Z,92.60
2022-09-23T14:29:24.872Z,92.40
2022-09-23T14:32:01.891Z,91.70
2022-09-23T14:35:00.326Z,91.20
2022-09-23T14:37:55.298Z,91.20
2022-09-23T14:40:29.174Z,90.30
2022-09-23T14:43:06.357Z,89.50
2022-09-23T14:45:36.335Z,90.10
2022-09-23T14:48:30.663Z,90.30
2022-09-23T14:51:00.028Z,90.50
2022-09-23T14:53:45.753Z,89.80
2022-09-23T14:56:24.688Z,89.80
2022-09-23T14:58:57.674Z,90.70
2022-09-23T15:01:31.244Z,91.40
2022-09-23T15:04:15.710Z,91.20
2022-09-23T15:07:09.507Z,91.60
2022-09-23T15:09:40.840Z,92.10
2022-09-23T15:12:21.608Z,92.30
2022-09-23T15:14:52.651Z,92.40
2022-09-23T15:17:23.007Z,92.50
2022-09-23T15:20:01.030Z,93.30
2022-09-23T15:22:28.529Z,93.10
2022-09-23T15:25:14.642Z,93.40
2022-09-23T15:27:42.061Z,93.60
2022-09-23T15:30:17.026Z,93.70
2022-09-23T15:32:45.844Z,93.70
2022-09-23T15:35:18.937Z,94.40
2022-09-23T15:37:48.474Z,94.70
2022-09-23T15:40:22.950Z,95.10
2022-09-23T15:42:52.731Z,95.40
2022-09-23T15:45:27.758Z,95.50
2022-09-23T15:47:56.237Z,95.80
2022-09-23T15:50:23.553Z,95.90
2022-09-23T15:52:50.950Z,96.60
2022-09-23T15:55:22.967Z,96.60
2022-09-23T15:57:51.354Z,96.90
2022-09-23T16:00:18.959Z,97.40
2022-09-23T16:02:48.589Z,97.20
2022-09-23T16:05:27.911Z,97.50
2022-09-23T16:07:55.300Z,97.50
2022-09-23T16:10:23.213Z,98.00
2022-09-23T16:12:52.478Z,97.50
2022-09-23T16:15:21.990Z,98.20
2022-09-23T16:17:49.862Z,97.70
2022-09-23T16:20:17.868Z,98.80
2022-09-23T16:22:53.080Z,99.60
2022-09-23T16:25:23.507Z,99.90
2022-09-23T16:27:50.836Z,99.90
2022-09-23T16:30:18.214Z,99.90
2022-09-23T16:32:45.598Z,99.90
2022-09-23T16:35:12.898Z,99.90
2022-09-23T16:37:40.318Z,99.90
2022-09-23T16:40:09.844Z,99.90
2022-09-23T16:42:38.343Z,99.90
2022-09-23T16:45:08.629Z,99.90
2022-09-23T16:47:44.834Z,99.90
2022-09-23T16:50:18.798Z,99.90
2022-09-23T16:52:46.926Z,99.90
2022-09-23T16:55:14.897Z,99.90
2022-09-23T16:57:42.254Z,99.90
2022-09-23T17:00:32.348Z,99.90
2022-09-23T17:03:19.031Z,99.90
2022-09-23T17:05:47.434Z,99.90
2022-09-23T17:08:16.102Z,99.90
2022-09-23T17:10:58.580Z,99.90
2022-09-23T17:13:27.916Z,99.90
2022-09-23T17:15:55.992Z,99.90
2022-09-23T17:18:23.440Z,99.90
2022-09-23T17:21:01.918Z,99.90
2022-09-23T17:23:31.636Z,99.90
2022-09-23T17:26:00.012Z,99.90
2022-09-23T17:28:28.205Z,99.90
2022-09-23T17:31:00.886Z,99.90
2022-09-23T17:33:30.162Z,99.90
2022-09-23T17:35:57.982Z,99.90
2022-09-23T17:38:29.150Z,99.90
2022-09-23T17:40:59.904Z,99.90
2022-09-23T17:43:28.237Z,99.90
2022-09-23T17:45:57.842Z,99.90
2022-09-23T17:48:26.261Z,99.90
2022-09-23T17:50:57.716Z,99.90
2022-09-23T17:53:26.224Z,99.90
2022-09-23T17:56:04.185Z,99.90
2022-09-23T17:58:33.990Z,99.90
2022-09-23T18:01:02.265Z,99.90
2022-09-23T18:03:31.348Z,99.90
2022-09-23T18:06:14.151Z,99.90
2022-09-23T18:08:44.381Z,99.90
2022-09-23T18:11:26.459Z,99.90
2022-09-23T18:13:55.225Z,99.90
2022-09-23T18:16:28.516Z,99.90
2022-09-23T18:19:00.927Z,99.90
2022-09-23T18:21:31.691Z,99.90
2022-09-23T18:24:28.203Z,99.90
2022-09-23T18:26:49.847Z,99.90
2022-09-23T18:29:17.427Z,99.90
2022-09-23T18:31:45.719Z,99.90
2022-09-23T18:34:16.798Z,99.90
2022-09-23T18:36:44.813Z,99.90
2022-09-23T18:39:12.360Z,99.90
2022-09-23T18:41:41.463Z,99.90
2022-09-23T18:44:09.618Z,99.90
2022-09-23T18:46:37.451Z,99.90
2022-09-23T18:49:23.328Z,99.90
2022-09-23T18:51:56.088Z,99.90
2022-09-23T18:54:25.674Z,99.90
2022-09-23T18:56:53.327Z,99.90
2022-09-23T18:59:25.209Z,99.90
2022-09-23T19:01:55.487Z,99.90
2022-09-23T19:04:24.853Z,99.90
2022-09-23T19:06:53.971Z,99.90
2022-09-23T19:09:21.310Z,99.90
2022-09-23T19:11:52.277Z,99.90
2022-09-23T19:14:19.855Z,99.90
2022-09-23T19:16:49.176Z,99.90
2022-09-23T19:19:17.068Z,99.90
2022-09-23T19:21:44.736Z,99.90
2022-09-23T19:24:15.762Z,99.90
2022-09-23T19:26:44.257Z,99.90
2022-09-23T19:29:16.867Z,99.90
2022-09-23T19:31:48.066Z,99.90
2022-09-23T19:34:23.871Z,99.90
2022-09-23T19:36:51.713Z,99.90
2022-09-23T19:39:22.262Z,99.90
2022-09-23T19:41:50.933Z,99.90
2022-09-23T19:44:20.033Z,99.90
2022-09-23T19:46:53.378Z,99.90
2022-09-23T19:49:24.822Z,99.90
2022-09-23T19:51:55.454Z,99.90
2022-09-23T19:54:26.156Z,99.90
2022-09-23T19:56:53.600Z,99.90
2022-09-23T19:59:21.061Z,99.90
2022-09-23T20:01:48.950Z,99.90
2022-09-23T20:04:17.031Z,99.90
2022-09-23T20:06:45.995Z,99.90
2022-09-23T20:09:13.705Z,99.90
2022-09-23T20:11:43.201Z,99.90
2022-09-23T20:14:10.982Z,99.90
2022-09-23T20:16:38.513Z,99.90
2022-09-23T20:19:06.215Z,99.90
2022-09-23T20:21:34.413Z,99.90
2022-09-23T20:24:05.258Z,99.90
2022-09-23T20:26:51.592Z,99.90
2022-09-23T20:29:19.021Z,99.90
2022-09-23T20:31:46.597Z,99.90
2022-09-23T20:34:14.027Z,99.90
2022-09-23T20:36:41.785Z,99.90
2022-09-23T20:39:10.301Z,99.90
2022-09-23T20:41:39.297Z,99.90
2022-09-23T20:44:11.705Z,99.90
2022-09-23T20:46:39.142Z,99.90
2022-09-23T20:49:10.089Z,99.90
2022-09-23T20:51:37.746Z,99.90
2022-09-23T20:54:05.250Z,99.90
2022-09-23T20:56:33.145Z,99.90
2022-09-23T20:59:01.917Z,99.90
2022-09-23T21:01:32.290Z,99.90
2022-09-23T21:04:01.903Z,99.90
2022-09-23T21:06:29.461Z,99.90
2022-09-23T21:08:57.219Z,99.90
2022-09-23T21:11:26.164Z,99.90
2022-09-23T21:13:54.663Z,99.90
2022-09-23T21:16:22.981Z,99.90
2022-09-23T21:18:51.735Z,99.90
2022-09-23T21:21:22.023Z,99.90
2022-09-23T21:23:50.195Z,99.90
2022-09-23T21:26:23.325Z,99.90
2022-09-23T21:28:53.261Z,99.90
2022-09-23T21:31:23.563Z,99.90
2022-09-23T21:33:59.186Z,99.90
2022-09-23T21:36:32.761Z,99.90
2022-09-23T21:39:01.790Z,99.90
2022-09-23T21:41:29.311Z,99.90
2022-09-23T21:43:57.772Z,99.90
2022-09-23T21:46:26.755Z,99.90
2022-09-23T21:48:57.567Z,99.90
2022-09-23T21:51:27.398Z,99.90
2022-09-23T21:53:56.882Z,99.90
2022-09-23T21:56:26.673Z,99.90
2022-09-23T21:58:55.462Z,99.90
2022-09-23T22:01:25.420Z,99.90
2022-09-23T22:03:55.779Z,99.90
2022-09-23T22:06:26.960Z,99.90
2022-09-23T22:09:00.133Z,99.90
2022-09-23T22:11:51.620Z,99.90
2022-09-23T22:14:20.895Z,99.90
2022-09-23T22:16:48.322Z,99.90
2022-09-23T22:19:15.793Z,99.90
2022-09-23T22:21:45.116Z,99.90
2022-09-23T22:24:13.202Z,99.90
2022-09-23T22:26:42.656Z,99.90
2022-09-23T22:29:33.723Z,99.90
2022-09-23T22:32:24.381Z,99.90
2022-09-23T22:34:52.650Z,99.90
2022-09-23T22:37:36.197Z,99.90
2022-09-23T22:40:14.292Z,99.90
2022-09-23T22:42:42.384Z,99.90
2022-09-23T22:45:11.226Z,99.90
2022-09-23T22:47:40.762Z,99.90
2022-09-23T22:50:09.580Z,99.90
2022-09-23T22:52:37.925Z,99.90
2022-09-23T22:55:08.096Z,99.90
2022-09-23T22:57:36.455Z,99.90
2022-09-23T23:00:05.174Z,99.90
2022-09-23T23:02:32.587Z,99.90
2022-09-23T23:05:00.501Z,99.90
2022-09-23T23:07:27.951Z,99.90
2022-09-23T23:09:56.810Z,99.90
2022-09-23T23:12:24.232Z,99.90
2022-09-23T23:14:51.581Z,99.90
2022-09-23T23:17:19.027Z,99.90
2022-09-23T23:19:47.529Z,99.90
2022-09-23T23:22:14.866Z,99.90
2022-09-23T23:24:42.360Z,99.90
2022-09-23T23:27:09.846Z,99.90
2022-09-23T23:29:37.194Z,99.90
2022-09-23T23:32:06.042Z,99.90
2022-09-23T23:34:33.509Z,99.90
2022-09-23T23:37:00.858Z,99.90
2022-09-23T23:39:29.315Z,99.90
2022-09-23T23:41:58.169Z,99.90
2022-09-23T23:44:26.766Z,99.90
2022-09-23T23:46:55.032Z,99.90
2022-09-23T23:49:22.921Z,99.90
2022-09-23T23:51:50.409Z,99.90
2022-09-23T23:54:17.961Z,99.90
2022-09-23T23:56:45.666Z,99.90
2022-09-23T23:59:13.236Z,99.90
